createdAt,value
2019-04-20T00:01:19.963Z,49.70
2019-04-20T00:03:46.765Z,49.80
2019-04-20T00:06:15.479Z,50.10
2019-04-20T00:09:11.841Z,50.00
2019-04-20T00:11:45.969Z,50.00
2019-04-20T00:14:11.184Z,50.10
2019-04-20T00:16:35.791Z,50.60
2019-04-20T00:19:05.858Z,50.50
2019-04-20T00:21:43.102Z,50.10
2019-04-20T00:24:20.055Z,50.10
2019-04-20T00:27:11.770Z,50.00
2019-04-20T00:29:35.465Z,50.40
2019-04-20T00:31:58.375Z,50.40
2019-04-20T00:34:24.107Z,50.90
2019-04-20T00:36:47.432Z,51.00
2019-04-20T00:39:17.197Z,51.30
2019-04-20T00:41:51.759Z,51.20
2019-04-20T00:44:24.252Z,51.60
2019-04-20T00:47:04.905Z,51.80
2019-04-20T00:49:32.189Z,52.30
2019-04-20T00:52:18.848Z,53.40
2019-04-20T00:54:20.584Z,54.10
2019-04-20T00:56:49.827Z,54.90
2019-04-20T00:59:32.326Z,55.70
2019-04-20T01:02:10.611Z,55.70
2019-04-20T01:04:46.205Z,56.50
2019-04-20T01:07:11.407Z,57.40
2019-04-20T01:09:43.388Z,57.20
2019-04-20T01:12:18.247Z,57.10
2019-04-20T01:14:51.403Z,57.10
2019-04-20T01:17:14.914Z,57.50
2019-04-20T01:19:43.741Z,57.50
2019-04-20T01:22:16.556Z,57.40
2019-04-20T01:24:46.284Z,56.90
2019-04-20T01:27:29.597Z,57.00
2019-04-20T01:29:49.403Z,57.10
2019-04-20T01:32:23.329Z,56.70
2019-04-20T01:34:57.642Z,56.40
2019-04-20T01:37:26.126Z,56.20
2019-04-20T01:39:50.194Z,56.10
2019-04-20T01:42:15.097Z,56.00
2019-04-20T01:44:47.332Z,56.40
2019-04-20T01:47:15.054Z,56.50
2019-04-20T01:49:49.697Z,56.60
2019-04-20T01:52:20.079Z,56.30
2019-04-20T01:55:10.257Z,56.30
2019-04-20T02:00:07.416Z,55.80
2019-04-20T02:02:34.412Z,55.80
2019-04-20T02:05:08.957Z,55.10
2019-04-20T02:07:40.045Z,55.50
2019-04-20T02:10:06.351Z,55.70
2019-04-20T02:12:35.695Z,55.90
2019-04-20T02:15:07.220Z,56.10
2019-04-20T02:17:41.832Z,56.30
2019-04-20T02:20:31.587Z,56.40
2019-04-20T02:22:51.594Z,56.40
2019-04-20T02:25:08.331Z,56.40
2019-04-20T02:27:45.606Z,56.90
2019-04-20T02:30:40.647Z,56.80
2019-04-20T02:33:27.387Z,56.80
2019-04-20T02:36:14.633Z,57.20
2019-04-20T02:41:30.056Z,57.00
2019-04-20T02:44:04.407Z,58.20
2019-04-20T02:46:24.700Z,58.10
2019-04-20T02:51:47.307Z,58.70
2019-04-20T02:54:18.776Z,58.70
2019-04-20T02:56:58.819Z,58.90
2019-04-20T03:01:55.362Z,59.00
2019-04-20T03:04:20.527Z,59.10
2019-04-20T03:06:54.820Z,59.80
2019-04-20T03:09:33.116Z,60.40
2019-04-20T03:12:08.211Z,61.60
2019-04-20T03:14:26.501Z,61.10
2019-04-20T03:17:04.356Z,61.50
2019-04-20T03:19:25.010Z,62.10
2019-04-20T03:22:04.159Z,62.20
2019-04-20T03:24:37.610Z,62.50
2019-04-20T03:27:00.415Z,62.20
2019-04-20T03:29:40.960Z,62.40
2019-04-20T03:37:27.034Z,62.00
2019-04-20T03:39:46.679Z,61.50
2019-04-20T03:42:00.937Z,61.30
2019-04-20T03:44:32.949Z,61.40
2019-04-20T03:47:06.336Z,61.30
2019-04-20T03:49:54.918Z,61.80
2019-04-20T03:52:27.774Z,62.50
2019-04-20T03:54:51.359Z,62.50
2019-04-20T03:57:38.321Z,63.10
2019-04-20T04:00:16.246Z,63.10
2019-04-20T04:03:06.157Z,63.80
2019-04-20T04:05:17.687Z,64.00
2019-04-20T04:07:41.544Z,64.40
2019-04-20T04:10:23.307Z,64.60
2019-04-20T04:13:29.865Z,63.80
2019-04-20T04:16:03.241Z,63.90
2019-04-20T04:18:36.840Z,63.40
2019-04-20T04:21:03.879Z,63.10
2019-04-20T04:23:45.843Z,63.00
2019-04-20T04:26:20.374Z,62.70
2019-04-20T04:28:43.820Z,62.50
2019-04-20T04:31:15.708Z,62.40
2019-04-20T04:34:02.681Z,62.40
2019-04-20T04:36:18.279Z,62.00
2019-04-20T04:38:56.073Z,61.90
2019-04-20T04:41:25.591Z,61.70
2019-04-20T04:43:49.839Z,61.40
2019-04-20T04:46:01.935Z,61.50
2019-04-20T04:48:35.605Z,61.50
2019-04-20T04:51:07.215Z,61.50
2019-04-20T04:53:46.809Z,61.40
2019-04-20T04:56:07.143Z,62.20
2019-04-20T04:58:31.974Z,60.80
2019-04-20T05:01:05.638Z,61.10
2019-04-20T05:03:57.705Z,58.80
2019-04-20T05:06:25.333Z,58.70
2019-04-20T05:08:41.704Z,57.70
2019-04-20T05:11:04.901Z,56.40
2019-04-20T05:13:41.977Z,56.00
2019-04-20T05:16:21.455Z,53.90
2019-04-20T05:18:57.958Z,53.30
2019-04-20T05:21:25.347Z,52.60
2019-04-20T05:23:53.514Z,52.10
2019-04-20T05:26:29.917Z,51.10
2019-04-20T05:28:51.427Z,50.70
2019-04-20T05:31:13.462Z,50.60
2019-04-20T05:34:10.852Z,49.10
2019-04-20T05:36:28.095Z,49.30
2019-04-20T05:39:10.351Z,48.10
2019-04-20T05:41:31.083Z,46.50
2019-04-20T05:43:59.476Z,47.10
2019-04-20T05:46:37.363Z,47.10
2019-04-20T05:49:08.931Z,46.40
2019-04-20T05:51:47.606Z,43.70
2019-04-20T05:54:09.874Z,45.00
2019-04-20T05:56:44.513Z,46.40
2019-04-20T05:59:07.010Z,44.00
2019-04-20T06:01:37.938Z,45.80
2019-04-20T06:04:02.729Z,43.60
2019-04-20T06:06:37.698Z,41.70
2019-04-20T06:11:44.777Z,43.00
2019-04-20T06:14:07.129Z,40.40
2019-04-20T06:16:50.101Z,40.50
2019-04-20T06:19:28.677Z,41.60
2019-04-20T06:21:57.603Z,41.80
2019-04-20T06:27:14.607Z,36.50
2019-04-20T06:29:31.279Z,38.40
2019-04-20T06:32:06.598Z,38.30
2019-04-20T06:34:46.592Z,39.40
2019-04-20T06:37:18.448Z,35.20
2019-04-20T06:39:40.711Z,34.40
2019-04-20T06:42:14.076Z,37.10
2019-04-20T06:44:48.230Z,34.20
2019-04-20T06:52:17.101Z,34.20
2019-04-20T06:54:53.956Z,33.00
2019-04-20T06:57:24.057Z,30.80
2019-04-20T06:59:55.040Z,31.40
2019-04-20T07:02:29.945Z,29.30
2019-04-20T07:04:55.576Z,29.10
2019-04-20T07:07:24.051Z,29.00
2019-04-20T07:12:27.324Z,26.50
2019-04-20T07:14:46.947Z,29.40
2019-04-20T07:17:39.443Z,28.80
2019-04-20T07:20:02.740Z,28.70
2019-04-20T07:25:08.051Z,27.60
2019-04-20T07:27:36.912Z,25.40
2019-04-20T07:30:07.967Z,24.70
2019-04-20T07:32:46.132Z,28.40
2019-04-20T07:35:09.865Z,24.50
2019-04-20T07:38:07.115Z,25.00
2019-04-20T07:40:10.423Z,25.80
2019-04-20T07:42:55.198Z,23.80
2019-04-20T07:45:16.857Z,25.30
2019-04-20T07:47:45.679Z,24.60
2019-04-20T07:50:09.123Z,25.10
2019-04-20T07:52:33.887Z,24.80
2019-04-20T07:57:39.156Z,24.10
2019-04-20T08:00:16.294Z,21.80
2019-04-20T08:03:13.065Z,22.20
2019-04-20T08:05:33.491Z,22.10
2019-04-20T08:08:08.322Z,21.00
2019-04-20T08:10:33.766Z,21.00
2019-04-20T08:13:17.383Z,22.60
2019-04-20T08:18:13.578Z,24.70
2019-04-20T08:20:51.116Z,22.90
2019-04-20T08:23:12.318Z,23.10
2019-04-20T08:25:39.018Z,26.80
2019-04-20T08:27:55.114Z,26.50
2019-04-20T08:30:53.788Z,25.40
2019-04-20T08:36:16.856Z,23.50
2019-04-20T08:41:15.283Z,20.70
2019-04-20T08:43:57.271Z,23.50
2019-04-20T08:46:21.924Z,20.80
2019-04-20T08:48:50.977Z,24.70
2019-04-20T08:51:20.930Z,24.90
2019-04-20T08:54:08.423Z,24.60
2019-04-20T08:56:31.707Z,24.00
2019-04-20T08:58:51.208Z,23.10
2019-04-20T09:01:28.260Z,22.70
2019-04-20T09:04:02.279Z,21.40
2019-04-20T09:06:36.482Z,24.80
2019-04-20T09:09:11.646Z,22.50
2019-04-20T09:11:47.166Z,24.60
2019-04-20T09:13:58.728Z,25.50
2019-04-20T09:16:32.343Z,21.40
2019-04-20T09:19:03.651Z,22.40
2019-04-20T09:21:36.874Z,21.70
2019-04-20T09:24:21.754Z,19.80
2019-04-20T09:26:43.186Z,23.20
2019-04-20T09:29:09.429Z,22.20
2019-04-20T09:31:43.655Z,22.60
2019-04-20T09:34:16.288Z,21.10
2019-04-20T09:37:12.921Z,22.70
2019-04-20T09:40:00.875Z,23.70
2019-04-20T09:42:08.471Z,22.50
2019-04-20T09:44:42.625Z,25.30
2019-04-20T09:47:09.172Z,26.80
2019-04-20T09:50:08.961Z,22.40
2019-04-20T09:52:48.018Z,22.10
2019-04-20T09:55:10.770Z,22.50
2019-04-20T09:57:45.533Z,23.40
2019-04-20T10:00:16.757Z,26.20
2019-04-20T10:02:33.092Z,21.00
2019-04-20T10:05:00.060Z,21.90
2019-04-20T10:07:33.542Z,21.40
2019-04-20T10:09:59.928Z,21.20
2019-04-20T10:12:29.407Z,20.40
2019-04-20T10:15:04.164Z,20.00
2019-04-20T10:17:31.376Z,19.20
2019-04-20T10:20:04.577Z,19.00
2019-04-20T10:22:28.785Z,21.00
2019-04-20T10:24:57.916Z,19.10
2019-04-20T10:27:28.397Z,20.70
2019-04-20T10:29:58.443Z,19.40
2019-04-20T10:32:34.172Z,19.10
2019-04-20T10:34:58.840Z,20.30
2019-04-20T10:37:29.394Z,19.60
2019-04-20T10:39:58.529Z,20.60
2019-04-20T10:42:28.140Z,21.50
2019-04-20T10:44:58.938Z,20.30
2019-04-20T10:47:27.322Z,19.90
2019-04-20T10:49:58.775Z,19.60
2019-04-20T10:52:27.864Z,22.30
2019-04-20T10:54:56.647Z,20.30
2019-04-20T10:57:25.809Z,22.40
2019-04-20T10:59:55.574Z,20.10
2019-04-20T11:02:24.266Z,19.90
2019-04-20T11:04:54.796Z,20.70
2019-04-20T11:07:23.698Z,19.30
2019-04-20T11:10:04.401Z,21.80
2019-04-20T11:12:22.607Z,22.30
2019-04-20T11:14:52.347Z,20.20
2019-04-20T11:17:22.342Z,22.60
2019-04-20T11:19:51.568Z,21.30
2019-04-20T11:22:20.302Z,20.20
2019-04-20T11:24:50.165Z,19.80
2019-04-20T11:27:18.793Z,19.70
2019-04-20T11:29:47.416Z,20.20
2019-04-20T11:32:16.288Z,19.70
2019-04-20T11:34:45.390Z,19.20
2019-04-20T11:37:15.276Z,20.00
2019-04-20T11:39:45.316Z,22.10
2019-04-20T11:42:14.051Z,19.90
2019-04-20T11:44:44.750Z,18.70
2019-04-20T11:47:14.702Z,19.00
2019-04-20T11:49:43.732Z,19.10
2019-04-20T11:52:13.644Z,19.90
2019-04-20T11:54:42.719Z,19.90
2019-04-20T11:57:11.655Z,20.10
2019-04-20T11:59:41.207Z,19.20
2019-04-20T12:02:22.460Z,20.80
2019-04-20T12:04:51.968Z,20.50
2019-04-20T12:07:17.542Z,20.00
2019-04-20T12:09:47.327Z,21.00
2019-04-20T12:12:27.268Z,20.30
2019-04-20T12:14:46.470Z,20.00
2019-04-20T12:17:15.580Z,21.80
2019-04-20T12:19:45.897Z,20.20
2019-04-20T12:22:15.942Z,21.50
2019-04-20T12:24:44.613Z,19.20
2019-04-20T12:27:14.535Z,19.80
2019-04-20T12:29:43.650Z,20.50
2019-04-20T12:32:12.893Z,20.80
2019-04-20T12:34:41.592Z,22.70
2019-04-20T12:37:11.261Z,21.70
2019-04-20T12:39:39.924Z,20.30
2019-04-20T12:42:09.613Z,20.20
2019-04-20T12:44:39.642Z,20.60
2019-04-20T12:47:09.912Z,20.30
2019-04-20T12:49:38.674Z,20.90
2019-04-20T12:52:08.421Z,21.20
2019-04-20T12:54:40.818Z,21.30
2019-04-20T12:57:08.816Z,21.00
2019-04-20T12:59:42.296Z,21.40
2019-04-20T13:02:11.282Z,21.40
2019-04-20T13:04:41.450Z,19.60
2019-04-20T13:07:10.508Z,20.00
2019-04-20T13:09:46.357Z,19.20
2019-04-20T13:12:17.431Z,22.00
2019-04-20T13:15:00.280Z,21.10
2019-04-20T13:17:30.116Z,19.90
2019-04-20T13:19:59.480Z,21.30
2019-04-20T13:22:28.741Z,21.80
2019-04-20T13:24:57.391Z,20.30
2019-04-20T13:27:27.041Z,20.30
2019-04-20T13:29:56.027Z,20.10
2019-04-20T13:32:25.679Z,23.20
2019-04-20T13:34:56.152Z,20.30
2019-04-20T13:37:26.149Z,20.90
2019-04-20T13:39:56.585Z,20.50
2019-04-20T13:42:29.466Z,21.80
2019-04-20T13:44:57.001Z,20.00
2019-04-20T13:47:28.099Z,20.20
2019-04-20T13:49:56.884Z,21.70
2019-04-20T13:52:26.819Z,21.30
2019-04-20T13:54:55.953Z,19.90
2019-04-20T13:57:42.066Z,20.40
2019-04-20T14:00:24.168Z,22.00
2019-04-20T14:02:54.771Z,20.60
2019-04-20T14:05:35.056Z,20.50
2019-04-20T14:08:07.442Z,20.90
2019-04-20T14:10:37.534Z,20.50
2019-04-20T14:13:12.115Z,20.20
2019-04-20T14:15:37.430Z,20.90
2019-04-20T14:18:07.151Z,21.00
2019-04-20T14:20:38.084Z,19.90
2019-04-20T14:23:07.458Z,19.70
2019-04-20T14:25:36.697Z,19.50
2019-04-20T14:28:06.891Z,19.90
2019-04-20T14:30:35.741Z,18.80
2019-04-20T14:33:05.217Z,19.70
2019-04-20T14:35:36.800Z,19.10
2019-04-20T14:38:05.883Z,21.40
2019-04-20T14:40:34.649Z,20.00
2019-04-20T14:43:03.498Z,18.90
2019-04-20T14:45:32.618Z,18.80
2019-04-20T14:48:01.649Z,19.70
2019-04-20T14:50:31.658Z,20.80
2019-04-20T14:53:01.853Z,20.00
2019-04-20T14:55:31.360Z,19.10
2019-04-20T14:58:01.804Z,19.00
2019-04-20T15:00:58.606Z,19.30
2019-04-20T15:03:52.010Z,19.90
2019-04-20T15:06:18.242Z,19.00
2019-04-20T15:08:48.273Z,18.90
2019-04-20T15:11:17.031Z,19.70
2019-04-20T15:13:46.882Z,21.60
2019-04-20T15:16:16.940Z,20.00
2019-04-20T15:18:49.088Z,21.00
2019-04-20T15:21:25.375Z,19.60
2019-04-20T15:23:55.447Z,19.70
2019-04-20T15:26:24.429Z,21.60
2019-04-20T15:28:54.465Z,23.10
2019-04-20T15:31:24.347Z,23.10
2019-04-20T15:33:52.927Z,22.20
2019-04-20T15:36:22.172Z,22.20
2019-04-20T15:38:51.388Z,23.00
2019-04-20T15:41:20.821Z,23.20
2019-04-20T15:43:51.131Z,24.20
2019-04-20T15:46:21.354Z,23.00
2019-04-20T15:48:50.293Z,22.50
2019-04-20T15:51:19.532Z,22.40
2019-04-20T15:53:49.525Z,22.70
2019-04-20T15:56:18.654Z,23.00
2019-04-20T15:58:48.397Z,23.00
2019-04-20T16:01:20.537Z,23.70
2019-04-20T16:03:51.154Z,23.30
2019-04-20T16:06:21.133Z,22.30
2019-04-20T16:08:52.309Z,21.90
2019-04-20T16:11:21.555Z,22.50
2019-04-20T16:13:53.737Z,23.00
2019-04-20T16:16:23.800Z,23.20
2019-04-20T16:18:52.806Z,23.10
2019-04-20T16:21:26.264Z,23.30
2019-04-20T16:27:15.885Z,22.80
2019-04-20T16:29:44.690Z,22.80
2019-04-20T16:32:32.606Z,23.70
2019-04-20T16:35:00.422Z,24.00
2019-04-20T16:37:30.489Z,24.20
2019-04-20T16:40:00.685Z,24.30
2019-04-20T16:42:29.974Z,24.60
2019-04-20T16:44:59.164Z,24.50
2019-04-20T16:47:28.140Z,23.70
2019-04-20T16:49:57.120Z,24.20
2019-04-20T16:52:26.282Z,25.20
2019-04-20T16:54:55.613Z,25.00
2019-04-20T16:57:25.558Z,25.30
2019-04-20T16:59:56.434Z,25.10
2019-04-20T17:02:24.614Z,26.20
2019-04-20T17:04:54.885Z,26.00
2019-04-20T17:07:25.083Z,26.30
2019-04-20T17:09:54.041Z,26.40
2019-04-20T17:12:23.875Z,26.90
2019-04-20T17:14:53.706Z,27.10
2019-04-20T17:17:22.457Z,27.90
2019-04-20T17:19:51.497Z,27.90
2019-04-20T17:22:21.390Z,28.40
2019-04-20T17:24:51.533Z,28.80
2019-04-20T17:27:28.980Z,29.20
2019-04-20T17:30:19.606Z,29.10
2019-04-20T17:32:47.496Z,29.80
2019-04-20T17:35:28.234Z,29.30
2019-04-20T17:37:49.595Z,30.40
2019-04-20T17:40:34.037Z,29.80
2019-04-20T17:43:00.066Z,30.50
2019-04-20T17:45:28.729Z,30.70
2019-04-20T17:48:04.491Z,30.60
2019-04-20T17:50:37.303Z,31.10
2019-04-20T17:53:07.439Z,32.00
2019-04-20T17:55:41.673Z,31.90
2019-04-20T17:58:12.181Z,32.40
2019-04-20T18:00:45.555Z,32.30
2019-04-20T18:03:52.809Z,32.10
2019-04-20T18:06:14.598Z,31.90
2019-04-20T18:08:45.504Z,32.10
2019-04-20T18:11:03.027Z,32.80
2019-04-20T18:13:27.349Z,34.10
2019-04-20T18:16:22.427Z,34.20
2019-04-20T18:18:50.395Z,32.90
2019-04-20T18:21:10.790Z,33.60
2019-04-20T18:23:43.480Z,33.40
2019-04-20T18:26:31.877Z,34.00
2019-04-20T18:29:06.149Z,40.20
2019-04-20T18:31:13.499Z,34.00
2019-04-20T18:33:44.370Z,34.60
2019-04-20T18:36:22.286Z,34.40
2019-04-20T18:38:51.955Z,35.30
2019-04-20T18:41:25.652Z,36.10
2019-04-20T18:43:48.637Z,36.40
2019-04-20T18:46:25.947Z,36.10
2019-04-20T18:49:06.928Z,36.50
2019-04-20T18:51:15.490Z,36.90
2019-04-20T18:53:46.840Z,36.60
2019-04-20T18:56:19.023Z,37.00
2019-04-20T18:58:45.200Z,36.80
2019-04-20T19:01:14.974Z,36.80
2019-04-20T19:03:47.268Z,37.20
2019-04-20T19:06:14.191Z,37.00
2019-04-20T19:08:48.003Z,36.80
2019-04-20T19:11:16.540Z,36.80
2019-04-20T19:13:47.827Z,37.20
2019-04-20T19:16:30.686Z,37.40
2019-04-20T19:19:06.608Z,38.20
2019-04-20T19:21:29.071Z,37.50
2019-04-20T19:24:07.727Z,37.80
2019-04-20T19:26:32.085Z,37.50
2019-04-20T19:29:11.077Z,38.50
2019-04-20T19:31:44.868Z,37.70
2019-04-20T19:34:19.028Z,36.60
2019-04-20T19:36:41.328Z,37.20
2019-04-20T19:39:21.373Z,37.10
2019-04-20T19:41:49.811Z,37.50
2019-04-20T19:44:19.202Z,37.00
2019-04-20T19:47:01.655Z,37.20
2019-04-20T19:49:23.026Z,38.20
2019-04-20T19:52:13.645Z,37.70
2019-04-20T19:54:35.560Z,36.60
2019-04-20T19:56:57.733Z,35.70
2019-04-20T19:59:23.451Z,36.30
2019-04-20T20:01:45.355Z,35.70
2019-04-20T20:04:15.649Z,36.40
2019-04-20T20:06:50.606Z,36.80
2019-04-20T20:09:16.462Z,36.60
2019-04-20T20:11:46.724Z,36.50
2019-04-20T20:14:19.503Z,37.30
2019-04-20T20:17:06.713Z,37.60
2019-04-20T20:19:32.319Z,39.20
2019-04-20T20:22:04.572Z,38.20
2019-04-20T20:24:19.569Z,39.40
2019-04-20T20:26:56.731Z,39.70
2019-04-20T20:29:30.454Z,39.40
2019-04-20T20:32:08.464Z,39.50
2019-04-20T20:34:31.079Z,39.70
2019-04-20T20:37:00.546Z,39.80
2019-04-20T20:39:29.550Z,40.00
2019-04-20T20:42:08.990Z,40.00
2019-04-20T20:44:37.753Z,41.20
2019-04-20T20:47:12.894Z,40.50
2019-04-20T20:50:01.410Z,41.30
2019-04-20T20:52:21.840Z,41.20
2019-04-20T20:54:47.692Z,41.40
2019-04-20T20:57:09.649Z,42.20
2019-04-20T20:59:46.772Z,41.50
2019-04-20T21:02:12.456Z,41.50
2019-04-20T21:04:35.388Z,41.90
2019-04-20T21:07:08.707Z,42.90
2019-04-20T21:09:37.627Z,42.50
2019-04-20T21:12:10.902Z,43.00
2019-04-20T21:14:39.121Z,43.00
2019-04-20T21:17:13.158Z,43.90
2019-04-20T21:19:58.017Z,43.50
2019-04-20T21:22:17.006Z,43.10
2019-04-20T21:24:47.042Z,43.60
2019-04-20T21:27:19.832Z,43.80
2019-04-20T21:29:51.456Z,44.00
2019-04-20T21:32:19.562Z,44.70
2019-04-20T21:34:53.346Z,44.90
2019-04-20T21:37:22.349Z,45.10
2019-04-20T21:39:57.994Z,44.30
2019-04-20T21:42:26.693Z,44.70
2019-04-20T21:45:04.585Z,45.00
2019-04-20T21:50:34.639Z,45.00
2019-04-20T21:52:53.382Z,45.70
2019-04-20T21:55:21.664Z,46.80
2019-04-20T21:57:53.922Z,46.60
2019-04-20T22:00:37.567Z,46.70
2019-04-20T22:03:05.848Z,47.10
2019-04-20T22:05:32.588Z,47.90
2019-04-20T22:08:05.538Z,47.90
2019-04-20T22:10:32.971Z,48.60
2019-04-20T22:13:03.182Z,49.60
2019-04-20T22:15:35.004Z,50.20
2019-04-20T22:18:06.843Z,50.90
2019-04-20T22:20:42.458Z,51.40
2019-04-20T22:23:17.213Z,52.30
2019-04-20T22:25:53.969Z,52.00
2019-04-20T22:28:05.315Z,51.70
2019-04-20T22:30:35.818Z,52.00
2019-04-20T22:33:06.307Z,51.90
2019-04-20T22:35:42.806Z,51.10
2019-04-20T22:38:12.565Z,51.70
2019-04-20T22:40:40.783Z,52.60
2019-04-20T22:43:10.385Z,53.10
2019-04-20T22:45:45.523Z,53.70
2019-04-20T22:48:29.174Z,53.90
2019-04-20T22:51:14.300Z,54.60
2019-04-20T22:53:38.873Z,54.50
2019-04-20T22:56:19.732Z,54.90
2019-04-20T22:58:40.523Z,54.70
2019-04-20T23:01:04.606Z,54.50
2019-04-20T23:03:30.562Z,54.80
2019-04-20T23:06:00.660Z,54.70
2019-04-20T23:08:30.707Z,54.90
2019-04-20T23:10:59.701Z,54.40
2019-04-20T23:13:35.109Z,54.80
2019-04-20T23:16:01.958Z,55.50
2019-04-20T23:18:29.859Z,55.90
2019-04-20T23:21:03.700Z,56.30
2019-04-20T23:23:30.960Z,56.40
2019-04-20T23:26:01.068Z,56.80
2019-04-20T23:28:31.222Z,56.80
2019-04-20T23:31:06.509Z,57.10
2019-04-20T23:33:30.173Z,57.20
2019-04-20T23:36:02.406Z,57.70
2019-04-20T23:38:29.064Z,58.00
2019-04-20T23:40:57.718Z,58.20
2019-04-20T23:43:31.547Z,58.40
2019-04-20T23:46:03.291Z,58.30
2019-04-20T23:48:50.408Z,58.50
2019-04-20T23:51:43.782Z,58.60
2019-04-20T23:53:58.623Z,59.20
2019-04-20T23:56:22.041Z,59.20
2019-04-20T23:58:53.417Z,59.40
